Time;durP1;ratioP1;P1;durP2;ratioP2;P2;SDS_P1;SDS_P2;PMS_P1;PMS_P2;Temp;Humidity;BMP_temperature;BMP_pressure;BME280_temperature;BME280_humidity;BME280_pressure;Samples;Min_cycle;Max_cycle;Signal;HPM_P1;HPM_P2
2022/03/17 00:01:16;;;;;;;29.52;17.63;;;9.40;98.10;;;;;;5032364;28;20061;-42
2022/03/17 00:03:42;;;;;;;29.77;17.67;;;9.30;98.10;;;;;;5032126;28;20086;-42
2022/03/17 00:06:10;;;;;;;29.20;18.48;;;9.30;98.20;;;;;;5032937;28;20058;-41
2022/03/17 00:08:36;;;;;;;28.73;19.52;;;9.90;98.60;;;;;;5032973;28;20048;-42
2022/03/17 00:11:02;;;;;;;30.15;18.27;;;9.30;98.40;;;;;;5032988;28;20029;-42
2022/03/17 00:13:27;;;;;;;32.15;21.50;;;9.70;98.60;;;;;;5032996;28;20581;-42
2022/03/17 00:15:53;;;;;;;34.17;19.92;;;9.20;98.60;;;;;;5032924;28;20033;-42
2022/03/17 00:18:19;;;;;;;27.02;17.42;;;9.30;98.70;;;;;;5032622;28;20482;-42
2022/03/17 00:20:45;;;;;;;30.23;18.38;;;10.00;99.00;;;;;;5032931;28;20048;-42
2022/03/17 00:23:10;;;;;;;31.05;20.08;;;9.10;98.90;;;;;;5033217;28;20037;-42
2022/03/17 00:25:36;;;;;;;27.98;18.80;;;9.20;98.90;;;;;;5032397;28;20048;-41
2022/03/17 00:28:02;;;;;;;29.90;19.48;;;9.20;99.00;;;;;;5031745;28;20060;-41
2022/03/17 00:30:28;;;;;;;27.52;18.15;;;9.20;99.10;;;;;;5032594;28;20041;-41
2022/03/17 00:32:54;;;;;;;31.63;19.42;;;9.20;99.10;;;;;;5031513;28;20034;-41
2022/03/17 00:38:22;;;;;;;30.45;18.30;;;9.20;99.30;;;;;;5032644;28;20057;-42
2022/03/17 00:40:48;;;;;;;30.25;20.08;;;9.20;99.40;;;;;;5032429;28;20041;-42
2022/03/17 00:43:15;;;;;;;30.48;19.00;;;9.20;99.50;;;;;;5032626;28;20041;-42
2022/03/17 00:45:43;;;;;;;31.02;19.73;;;10.20;99.80;;;;;;5032535;28;20041;-42
2022/03/17 00:48:09;;;;;;;31.25;19.67;;;9.90;99.80;;;;;;5032420;28;20066;-42
2022/03/17 00:50:35;;;;;;;29.25;19.48;;;10.00;99.90;;;;;;5043910;28;20470;-42
2022/03/17 00:53:01;;;;;;;31.75;19.85;;;9.20;99.90;;;;;;5072243;28;20103;-42
2022/03/17 00:55:27;;;;;;;26.35;18.75;;;9.10;99.80;;;;;;5072296;28;20041;-42
2022/03/17 00:57:53;;;;;;;31.35;18.02;;;9.10;99.90;;;;;;5072212;28;20568;-42
2022/03/17 01:00:21;;;;;;;32.25;19.73;;;9.50;99.90;;;;;;5072339;28;20466;-42
2022/03/17 01:02:53;;;;;;;31.67;19.45;;;9.20;99.90;;;;;;5054023;28;20044;-43
2022/03/17 01:05:19;;;;;;;32.15;19.52;;;9.20;99.90;;;;;;5072286;28;20098;-42
2022/03/17 01:07:45;;;;;;;29.42;18.80;;;9.20;99.90;;;;;;5071812;28;20418;-42
2022/03/17 01:10:17;;;;;;;29.45;18.40;;;10.30;99.90;;;;;;5072503;28;20474;-42
2022/03/17 01:20:33;;;;;;;28.23;18.08;;;9.30;99.90;;;;;;5071500;28;20167;-42
2022/03/17 01:23:00;;;;;;;28.73;19.13;;;9.30;99.90;;;;;;5071905;28;20032;-42
2022/03/17 01:25:25;;;;;;;29.45;18.58;;;9.10;99.90;;;;;;5071598;28;20045;-41
2022/03/17 01:27:51;;;;;;;30.33;18.77;;;9.30;99.90;;;;;;5071677;28;20040;-41
2022/03/17 01:30:17;;;;;;;30.13;18.00;;;9.30;99.90;;;;;;5071958;28;20068;-42
2022/03/17 01:32:42;;;;;;;31.73;20.42;;;9.30;99.90;;;;;;5071978;28;20039;-42
2022/03/17 01:35:09;;;;;;;28.50;18.98;;;9.70;99.90;;;;;;5072074;28;20367;-42
2022/03/17 01:37:35;;;;;;;27.65;18.45;;;9.40;99.90;;;;;;5071585;28;20044;-42
2022/03/17 01:40:01;;;;;;;30.48;20.35;;;9.40;99.90;;;;;;5071605;28;20055;-41
2022/03/17 01:42:27;;;;;;;30.50;19.20;;;9.40;99.90;;;;;;5071760;28;20044;-42
2022/03/17 01:44:54;;;;;;;31.23;19.55;;;9.30;99.90;;;;;;5071790;28;20501;-43
2022/03/17 01:47:31;;;;;;;30.95;19.50;;;10.40;99.90;;;;;;5071333;28;20045;-42
2022/03/17 01:50:00;;;;;;;31.85;20.98;;;9.10;99.90;;;;;;5071530;28;20494;-42
2022/03/17 01:52:27;;;;;;;30.35;18.70;;;9.60;99.90;;;;;;5072298;28;20115;-42
2022/03/17 01:54:53;;;;;;;29.15;19.42;;;9.30;99.90;;;;;;5072106;28;20040;-43
2022/03/17 01:57:20;;;;;;;30.60;20.60;;;9.30;99.90;;;;;;5071871;28;20045;-42
2022/03/17 01:59:48;;;;;;;32.28;19.70;;;9.80;99.90;;;;;;5071787;28;20072;-42
2022/03/17 02:02:14;;;;;;;29.75;18.65;;;9.60;99.90;;;;;;5071780;28;20056;-42
2022/03/17 02:04:41;;;;;;;32.00;19.85;;;9.30;99.90;;;;;;5071627;28;20048;-42
2022/03/17 02:07:08;;;;;;;29.98;18.90;;;9.40;99.90;;;;;;5071555;28;20478;-42
2022/03/17 02:09:35;;;;;;;29.80;19.73;;;9.30;99.90;;;;;;5071891;28;20040;-42
2022/03/17 02:14:50;;;;;;;29.23;18.48;;;9.20;99.90;;;;;;5071445;28;20111;-41
2022/03/17 02:17:17;;;;;;;29.98;20.77;;;9.30;99.90;;;;;;5071498;28;20065;-41
2022/03/17 02:19:43;;;;;;;31.83;20.02;;;9.20;99.90;;;;;;5071630;28;20106;-41
2022/03/17 02:22:18;;;;;;;31.13;20.60;;;9.20;99.90;;;;;;5071772;28;20044;-43
2022/03/17 02:27:46;;;;;;;27.95;20.63;;;9.00;99.90;;;;;;5026206;28;20080;-41
2022/03/17 02:30:15;;;;;;;31.08;19.58;;;9.30;99.90;;;;;;5071585;28;20028;-42
2022/03/17 02:32:41;;;;;;;31.95;20.40;;;10.30;99.90;;;;;;5071454;28;20405;-42
2022/03/17 02:35:11;;;;;;;27.33;20.52;;;10.40;99.90;;;;;;5071591;28;20071;-41
2022/03/17 02:37:37;;;;;;;33.30;20.15;;;9.30;99.90;;;;;;5071382;28;20059;-41
2022/03/17 02:40:06;;;;;;;32.53;20.45;;;9.30;99.90;;;;;;5053011;28;20394;-42
2022/03/17 02:42:32;;;;;;;36.10;20.08;;;9.30;99.90;;;;;;5071513;28;20036;-43
2022/03/17 02:44:59;;;;;;;30.58;19.58;;;9.20;99.90;;;;;;5071342;28;20037;-42
2022/03/17 02:47:29;;;;;;;32.05;19.95;;;9.70;99.90;;;;;;5071054;28;20485;-41
2022/03/17 02:49:55;;;;;;;33.17;20.17;;;8.90;99.90;;;;;;5071406;28;20044;-43
2022/03/17 02:52:25;;;;;;;34.83;20.10;;;9.20;99.90;;;;;;5070838;28;20098;-43
2022/03/17 02:54:52;;;;;;;31.25;19.77;;;9.30;99.90;;;;;;5071092;28;20087;-42
2022/03/17 02:57:19;;;;;;;34.63;21.35;;;10.30;99.90;;;;;;5073208;28;20049;-43
2022/03/17 02:59:46;;;;;;;32.33;20.02;;;10.20;99.90;;;;;;5056746;28;20123;-42
2022/03/17 03:02:13;;;;;;;32.00;20.27;;;9.30;99.90;;;;;;5074442;28;20040;-42
2022/03/17 03:04:39;;;;;;;29.17;20.48;;;9.80;99.90;;;;;;5074845;28;20032;-42
2022/03/17 03:07:06;;;;;;;28.17;19.60;;;10.40;99.90;;;;;;5074648;28;20119;-42
2022/03/17 03:09:32;;;;;;;32.38;21.23;;;9.10;99.90;;;;;;5074422;28;20047;-42
2022/03/17 03:11:58;;;;;;;34.97;21.33;;;9.70;99.90;;;;;;5074693;28;20087;-43
2022/03/17 03:14:24;;;;;;;31.13;19.90;;;10.20;99.90;;;;;;5074536;28;20064;-42
2022/03/17 03:16:50;;;;;;;28.42;19.73;;;9.30;99.90;;;;;;5074406;28;20524;-42
2022/03/17 03:19:16;;;;;;;29.98;20.25;;;9.20;99.90;;;;;;5074174;28;20040;-42
2022/03/17 03:21:45;;;;;;;28.48;20.15;;;10.30;99.90;;;;;;5074504;28;20040;-43
2022/03/17 03:24:12;;;;;;;31.27;21.08;;;10.30;99.90;;;;;;5074122;28;20111;-43
2022/03/17 03:26:43;;;;;;;30.77;21.13;;;9.30;99.90;;;;;;5073733;28;20076;-42
2022/03/17 03:29:22;;;;;;;31.15;20.17;;;9.70;99.90;;;;;;5074141;28;20036;-41
2022/03/17 03:31:52;;;;;;;33.15;20.13;;;9.30;99.90;;;;;;5074400;28;20120;-42
2022/03/17 03:34:19;;;;;;;32.13;21.10;;;9.30;99.90;;;;;;5073673;28;20056;-42
2022/03/17 03:39:31;;;;;;;31.92;20.65;;;9.40;99.90;;;;;;5073527;28;20103;-42
2022/03/17 03:41:57;;;;;;;28.05;20.02;;;9.30;99.90;;;;;;5073664;28;20470;-41
2022/03/17 03:44:23;;;;;;;27.80;19.35;;;9.30;99.90;;;;;;5074075;28;20072;-42
2022/03/17 03:46:48;;;;;;;34.55;19.73;;;9.30;99.90;;;;;;5073712;28;20117;-42
2022/03/17 03:49:14;;;;;;;31.55;21.60;;;9.30;99.90;;;;;;5073656;28;20044;-42
2022/03/17 03:51:40;;;;;;;31.23;21.23;;;9.30;99.90;;;;;;5073356;28;20627;-42
2022/03/17 03:54:18;;;;;;;29.42;18.92;;;9.40;99.90;;;;;;5073978;28;20037;-42
2022/03/17 03:56:46;;;;;;;30.58;21.55;;;9.40;99.90;;;;;;5074046;28;20036;-42
2022/03/17 04:01:45;;;;;;;29.30;20.58;;;10.90;99.90;;;;;;5073510;28;20047;-41
2022/03/17 04:04:20;;;;;;;30.45;21.42;;;9.50;99.90;;;;;;5073208;28;20453;-42
2022/03/17 04:06:49;;;;;;;26.55;17.90;;;9.40;99.90;;;;;;5073270;28;20107;-43
2022/03/17 04:09:17;;;;;;;29.00;20.70;;;9.40;99.90;;;;;;5072984;28;20542;-44
2022/03/17 04:11:44;;;;;;;32.05;21.08;;;9.40;99.90;;;;;;5073883;28;20091;-42
2022/03/17 04:14:12;;;;;;;30.80;21.50;;;9.40;99.90;;;;;;5073481;28;20048;-43
2022/03/17 04:16:38;;;;;;;28.58;19.77;;;9.40;99.90;;;;;;5073370;28;20106;-42
2022/03/17 04:19:04;;;;;;;28.35;20.10;;;9.90;99.90;;;;;;5073626;28;20037;-43
2022/03/17 04:21:31;;;;;;;31.23;21.08;;;9.90;99.90;;;;;;5073425;28;20110;-42
2022/03/17 04:23:57;;;;;;;33.55;22.35;;;9.50;99.90;;;;;;5073215;28;20040;-42
2022/03/17 04:26:23;;;;;;;30.05;21.60;;;9.50;99.90;;;;;;5073195;28;20389;-41
2022/03/17 04:28:49;;;;;;;32.45;21.83;;;10.80;99.90;;;;;;5072870;28;20045;-43
2022/03/17 04:31:14;;;;;;;31.23;21.60;;;10.20;99.90;;;;;;5072754;28;20040;-43
2022/03/17 04:33:40;;;;;;;30.75;21.60;;;9.50;99.90;;;;;;5072510;28;20048;-42
2022/03/17 04:36:07;;;;;;;33.70;20.98;;;9.70;99.90;;;;;;5072879;28;20175;-42
2022/03/17 04:38:33;;;;;;;33.60;22.55;;;9.50;99.90;;;;;;5073069;28;20056;-43
2022/03/17 04:40:59;;;;;;;36.45;22.52;;;9.50;99.90;;;;;;5072851;28;20051;-42
2022/03/17 04:43:25;;;;;;;33.75;22.88;;;9.70;99.90;;;;;;5072936;28;20044;-42
2022/03/17 04:45:51;;;;;;;31.52;22.40;;;10.40;99.90;;;;;;5072511;28;20498;-41
2022/03/17 04:48:17;;;;;;;37.33;24.23;;;10.00;99.90;;;;;;5072541;28;20512;-42
2022/03/17 04:50:43;;;;;;;36.30;23.92;;;9.50;99.90;;;;;;5072121;28;20059;-43
2022/03/17 04:53:27;;;;;;;37.08;25.08;;;9.50;99.90;;;;;;5072404;28;20368;-44
2022/03/17 04:55:54;;;;;;;41.70;28.92;;;9.50;99.90;;;;;;5072609;28;20481;-42
2022/03/17 04:58:20;;;;;;;43.75;29.50;;;9.40;99.90;;;;;;5072736;28;20680;-42
2022/03/17 05:00:46;;;;;;;44.83;29.65;;;9.30;99.90;;;;;;5072607;28;20085;-42
2022/03/17 05:03:12;;;;;;;44.88;30.73;;;9.20;99.90;;;;;;5072460;28;20506;-43
2022/03/17 05:05:38;;;;;;;45.70;32.67;;;9.00;99.90;;;;;;5072386;28;20052;-42
2022/03/17 05:08:06;;;;;;;62.58;31.30;;;9.10;99.90;;;;;;5072062;28;20355;-42
2022/03/17 05:10:35;;;;;;;53.50;34.15;;;8.80;99.90;;;;;;5071801;28;20119;-42
2022/03/17 05:13:09;;;;;;;58.58;35.20;;;9.10;99.90;;;;;;5072096;28;20078;-41
2022/03/17 05:15:35;;;;;;;65.10;36.83;;;8.60;99.90;;;;;;5071815;28;20040;-42
2022/03/17 05:18:02;;;;;;;64.20;37.13;;;9.10;99.90;;;;;;5071872;28;20379;-43
2022/03/17 05:20:28;;;;;;;65.63;38.22;;;8.50;99.90;;;;;;5071184;28;20103;-42
2022/03/17 05:22:53;;;;;;;67.28;39.55;;;8.50;99.90;;;;;;5071939;28;20036;-41
2022/03/17 05:25:20;;;;;;;74.25;41.15;;;8.40;99.90;;;;;;5071586;28;20045;-42
2022/03/17 05:27:48;;;;;;;73.68;38.95;;;8.70;99.90;;;;;;5071140;28;20098;-41
2022/03/17 05:30:16;;;;;;;78.60;42.35;;;8.40;99.90;;;;;;5071753;28;20050;-41
2022/03/17 05:32:43;;;;;;;85.90;43.55;;;8.40;99.90;;;;;;5071903;28;20386;-41
2022/03/17 05:35:09;;;;;;;85.18;43.85;;;8.30;99.90;;;;;;5071449;28;20397;-42
2022/03/17 05:37:36;;;;;;;86.43;43.17;;;8.30;99.90;;;;;;5071307;28;20043;-41
2022/03/17 05:40:08;;;;;;;87.60;40.97;;;8.40;99.90;;;;;;5070756;28;20536;-41
2022/03/17 05:42:34;;;;;;;77.22;37.50;;;8.40;99.90;;;;;;5071321;28;20045;-41
2022/03/17 05:44:59;;;;;;;73.50;36.10;;;9.80;99.90;;;;;;5071273;28;20045;-42
2022/03/17 05:47:32;;;;;;;41.92;21.17;;;8.20;99.90;;;;;;5071259;28;20044;-41
2022/03/17 05:49:58;;;;;;;17.30;9.63;;;8.30;99.90;;;;;;5071845;28;20044;-42
2022/03/17 05:52:24;;;;;;;12.27;8.73;;;8.30;99.90;;;;;;5071065;28;20052;-41
2022/03/17 05:54:49;;;;;;;13.32;7.78;;;9.20;99.90;;;;;;5071297;28;20434;-42
2022/03/17 05:57:15;;;;;;;14.05;7.65;;;7.70;99.90;;;;;;5071478;28;20055;-42
2022/03/17 05:59:41;;;;;;;9.30;6.38;;;7.70;99.90;;;;;;5071665;28;20048;-42
2022/03/17 06:02:06;;;;;;;8.25;5.82;;;7.60;99.90;;;;;;5071564;28;20048;-42
2022/03/17 06:04:32;;;;;;;10.00;5.90;;;7.60;99.90;;;;;;5071090;28;20110;-43
2022/03/17 06:06:58;;;;;;;11.82;8.15;;;7.80;99.90;;;;;;5053322;28;20036;-41
2022/03/17 06:09:23;;;;;;;13.88;7.63;;;7.30;99.90;;;;;;5070977;28;20037;-41
2022/03/17 06:11:50;;;;;;;15.27;8.13;;;8.00;99.90;;;;;;5070870;28;20060;-42
2022/03/17 06:14:16;;;;;;;17.42;11.00;;;7.20;99.90;;;;;;5070579;28;20045;-42
2022/03/17 06:16:42;;;;;;;23.38;11.35;;;7.10;99.90;;;;;;5071070;28;20036;-42
2022/03/17 06:19:08;;;;;;;19.63;11.13;;;7.20;99.90;;;;;;5071133;28;20076;-42
2022/03/17 06:21:34;;;;;;;21.38;10.65;;;7.10;99.90;;;;;;5070764;28;20048;-42
2022/03/17 06:23:59;;;;;;;27.02;13.20;;;7.10;99.90;;;;;;5070839;28;20040;-42
2022/03/17 06:26:25;;;;;;;23.40;12.38;;;7.10;99.90;;;;;;5070735;28;20120;-41
2022/03/17 06:28:50;;;;;;;27.48;13.68;;;7.00;99.90;;;;;;5070488;28;20072;-41
2022/03/17 06:31:16;;;;;;;31.13;14.43;;;7.00;99.90;;;;;;5071943;28;20052;-42
2022/03/17 06:33:44;;;;;;;25.35;12.57;;;7.50;99.90;;;;;;5075009;28;20041;-41
2022/03/17 06:36:10;;;;;;;29.17;16.27;;;7.00;99.90;;;;;;5074764;28;20056;-41
2022/03/17 06:38:35;;;;;;;29.40;14.55;;;6.90;99.90;;;;;;5074875;28;20040;-42
2022/03/17 06:41:01;;;;;;;25.60;13.45;;;6.90;99.90;;;;;;5074682;28;20517;-42
2022/03/17 06:43:27;;;;;;;29.40;14.15;;;8.30;99.90;;;;;;5074734;28;20517;-42
2022/03/17 06:45:53;;;;;;;29.73;12.43;;;7.90;99.90;;;;;;5074841;28;20482;-41
2022/03/17 06:48:18;;;;;;;21.33;10.98;;;7.90;99.90;;;;;;5074645;28;20041;-41
2022/03/17 06:50:44;;;;;;;24.58;13.13;;;6.90;99.90;;;;;;5074508;28;20479;-42
2022/03/17 06:53:10;;;;;;;23.02;12.02;;;7.00;99.90;;;;;;5074297;28;20529;-41
2022/03/17 06:55:35;;;;;;;26.10;12.05;;;6.80;99.90;;;;;;5074466;28;20048;-42
2022/03/17 06:58:02;;;;;;;31.52;12.68;;;6.70;99.90;;;;;;5074387;28;20043;-42
2022/03/17 07:00:27;;;;;;;27.00;11.30;;;6.80;99.90;;;;;;5074367;28;20044;-42
2022/03/17 07:02:53;;;;;;;24.02;11.20;;;6.80;99.90;;;;;;5074468;28;20052;-43
2022/03/17 07:05:19;;;;;;;25.00;10.25;;;7.80;99.90;;;;;;5074461;28;20044;-43
2022/03/17 07:07:45;;;;;;;23.58;10.02;;;6.80;99.90;;;;;;5073701;28;20044;-43
2022/03/17 07:10:13;;;;;;;17.20;9.77;;;6.90;99.90;;;;;;5073862;28;20039;-43
2022/03/17 07:12:41;;;;;;;26.65;8.55;;;6.80;99.90;;;;;;5074226;28;20036;-41
2022/03/17 07:15:08;;;;;;;23.25;8.60;;;7.50;99.90;;;;;;5056263;28;20040;-42
2022/03/17 07:17:43;;;;;;;16.85;7.95;;;6.80;99.90;;;;;;5074249;28;20040;-42
2022/03/17 07:20:10;;;;;;;20.92;7.22;;;8.10;99.90;;;;;;5074083;28;20044;-41
2022/03/17 07:22:36;;;;;;;16.00;6.38;;;6.70;99.90;;;;;;5074018;28;20119;-42
2022/03/17 07:25:03;;;;;;;14.50;5.80;;;6.70;99.90;;;;;;5074158;28;20068;-43
2022/03/17 07:27:31;;;;;;;18.08;6.28;;;6.70;99.90;;;;;;5073798;28;20040;-41
2022/03/17 07:29:57;;;;;;;16.27;4.82;;;6.70;99.90;;;;;;5073789;28;20032;-42
2022/03/17 07:32:25;;;;;;;17.55;4.22;;;6.60;99.90;;;;;;5073642;28;20040;-43
2022/03/17 07:34:51;;;;;;;12.15;3.50;;;6.80;99.90;;;;;;5073584;28;20037;-41
2022/03/17 07:37:17;;;;;;;11.75;3.90;;;6.70;99.90;;;;;;5073856;28;20040;-42
2022/03/17 07:39:44;;;;;;;13.32;3.30;;;6.90;99.90;;;;;;5073607;28;20044;-42
2022/03/17 07:42:09;;;;;;;11.38;2.88;;;6.70;99.90;;;;;;5073469;28;20040;-42
2022/03/17 07:44:37;;;;;;;9.68;2.08;;;6.90;99.90;;;;;;5073917;28;20051;-43
2022/03/17 07:47:03;;;;;;;9.52;1.98;;;7.60;99.90;;;;;;5073583;28;20107;-43
2022/03/17 07:49:29;;;;;;;13.65;2.40;;;6.90;99.90;;;;;;5073401;28;20044;-42
2022/03/17 07:51:55;;;;;;;11.60;2.17;;;6.70;99.90;;;;;;5073105;28;20139;-41
2022/03/17 07:54:20;;;;;;;10.20;2.25;;;6.80;99.90;;;;;;5073309;28;20061;-41
2022/03/17 07:56:47;;;;;;;11.95;3.20;;;6.80;99.90;;;;;;5073541;28;20036;-42
2022/03/17 07:59:13;;;;;;;9.55;1.40;;;6.90;99.90;;;;;;5073696;28;20045;-43
2022/03/17 08:01:38;;;;;;;8.20;1.48;;;8.30;99.90;;;;;;5073185;28;20109;-41
2022/03/17 08:04:04;;;;;;;13.45;1.75;;;7.00;99.90;;;;;;5073324;28;20051;-42
2022/03/17 08:06:30;;;;;;;9.38;1.35;;;8.30;99.90;;;;;;5073138;28;20106;-42
2022/03/17 08:08:56;;;;;;;11.77;1.70;;;7.00;99.90;;;;;;5073081;28;20045;-43
2022/03/17 08:11:23;;;;;;;11.70;2.15;;;6.90;99.90;;;;;;5073217;28;20486;-41
2022/03/17 08:13:50;;;;;;;12.18;1.42;;;6.90;99.90;;;;;;5073265;28;20052;-41
2022/03/17 08:16:16;;;;;;;6.50;0.32;;;6.80;99.90;;;;;;5073052;28;20037;-42
2022/03/17 08:18:42;;;;;;;8.23;0.90;;;6.80;99.90;;;;;;5073026;28;20509;-41
2022/03/17 08:21:08;;;;;;;8.57;0.90;;;6.90;99.90;;;;;;5073298;28;20389;-41
2022/03/17 08:23:34;;;;;;;12.63;1.45;;;7.50;99.90;;;;;;5072967;28;20542;-42
2022/03/17 08:26:00;;;;;;;16.83;1.13;;;6.70;99.90;;;;;;5054951;28;20552;-42
2022/03/17 08:28:26;;;;;;;7.95;0.85;;;6.70;99.90;;;;;;5072804;28;20048;-43
2022/03/17 08:30:51;;;;;;;14.88;1.45;;;6.60;99.90;;;;;;5072379;28;20378;-42
2022/03/17 08:33:18;;;;;;;12.57;1.52;;;6.70;99.90;;;;;;5073048;28;20051;-42
2022/03/17 08:35:45;;;;;;;14.00;0.80;;;6.70;99.90;;;;;;5072928;28;20071;-42
2022/03/17 08:38:11;;;;;;;15.30;1.73;;;7.90;99.90;;;;;;5054758;28;20444;-42
2022/03/17 08:40:38;;;;;;;13.88;1.67;;;6.80;99.90;;;;;;5072424;28;20123;-43
2022/03/17 08:43:06;;;;;;;17.65;1.10;;;7.60;99.90;;;;;;5072864;28;20137;-42
2022/03/17 08:51:01;;;;;;;12.07;1.63;;;7.00;99.90;;;;;;5072100;28;20079;-42
2022/03/17 08:53:29;;;;;;;6.72;0.88;;;7.00;99.90;;;;;;5067825;28;20052;-42
2022/03/17 08:55:57;;;;;;;12.43;0.82;;;6.90;99.90;;;;;;5065797;28;20033;-41
2022/03/17 08:58:23;;;;;;;18.25;2.03;;;6.70;99.90;;;;;;5067453;28;20406;-49
2022/03/17 09:00:49;;;;;;;15.85;1.30;;;7.80;99.90;;;;;;5068977;28;20040;-49
2022/03/17 09:03:15;;;;;;;12.57;0.88;;;6.80;99.90;;;;;;5069631;28;20047;-49
2022/03/17 09:05:41;;;;;;;15.80;1.38;;;6.80;99.90;;;;;;5069465;28;20391;-47
2022/03/17 09:08:09;;;;;;;15.10;1.10;;;6.70;99.90;;;;;;5051641;28;20051;-46
2022/03/17 09:10:36;;;;;;;8.77;1.10;;;6.80;99.90;;;;;;5068994;28;20409;-52
2022/03/17 09:13:07;;;;;;;15.75;1.38;;;6.70;99.90;;;;;;5068472;28;20582;-49
2022/03/17 09:15:35;;;;;;;12.38;0.82;;;6.90;99.90;;;;;;5068807;28;20099;-49
2022/03/17 09:18:01;;;;;;;15.05;1.20;;;6.70;99.90;;;;;;5050880;28;20655;-48
2022/03/17 09:20:26;;;;;;;13.30;0.70;;;6.60;99.90;;;;;;5068970;28;20128;-50
2022/03/17 09:22:52;;;;;;;13.95;0.68;;;6.80;99.90;;;;;;5068532;28;20545;-49
2022/03/17 09:25:23;;;;;;;14.02;1.75;;;6.80;99.90;;;;;;5069264;28;20098;-55
2022/03/17 09:27:52;;;;;;;10.52;1.23;;;6.80;99.90;;;;;;5051829;28;20040;-51
2022/03/17 09:30:19;;;;;;;14.07;1.10;;;6.80;99.90;;;;;;5068912;28;20052;-54
2022/03/17 09:32:45;;;;;;;10.75;0.75;;;6.90;99.90;;;;;;5069196;28;20043;-48
2022/03/17 09:35:12;;;;;;;9.70;1.20;;;6.70;99.90;;;;;;5068319;28;20538;-52
2022/03/17 09:37:38;;;;;;;11.40;1.00;;;6.90;99.90;;;;;;5068933;28;20300;-47
2022/03/17 09:40:06;;;;;;;13.70;1.42;;;7.30;99.90;;;;;;5068772;28;20366;-49
2022/03/17 09:42:32;;;;;;;20.63;1.75;;;7.50;99.90;;;;;;5069046;28;20040;-51
2022/03/17 09:44:57;;;;;;;15.30;1.10;;;7.40;99.90;;;;;;5068369;28;20520;-55
2022/03/17 09:47:27;;;;;;;13.15;0.90;;;7.60;99.90;;;;;;5069264;28;20048;-52
2022/03/17 09:49:54;;;;;;;12.13;0.82;;;7.60;99.90;;;;;;5068991;28;20529;-54
2022/03/17 09:52:21;;;;;;;10.73;1.52;;;7.60;99.90;;;;;;5068661;28;20140;-51
2022/03/17 09:54:49;;;;;;;8.52;0.82;;;7.70;99.90;;;;;;5069148;28;20075;-53
2022/03/17 09:57:16;;;;;;;11.93;0.95;;;9.10;99.90;;;;;;5068648;28;20482;-52
2022/03/17 09:59:49;;;;;;;17.33;1.10;;;7.80;99.90;;;;;;5069066;28;20131;-50
2022/03/17 10:02:16;;;;;;;11.93;1.02;;;7.80;99.90;;;;;;5068365;28;20076;-49
2022/03/17 10:04:44;;;;;;;16.25;1.42;;;7.80;99.90;;;;;;5069173;28;20032;-51
2022/03/17 10:07:22;;;;;;;11.52;1.98;;;7.90;99.90;;;;;;5072814;28;20477;-54
2022/03/17 10:09:49;;;;;;;12.63;1.20;;;8.90;99.90;;;;;;5038345;28;20052;-53
2022/03/17 10:12:20;;;;;;;11.52;0.90;;;7.70;99.90;;;;;;5052716;28;20047;-48
2022/03/17 10:14:51;;;;;;;17.63;1.30;;;8.00;99.90;;;;;;5069564;28;20044;-48
2022/03/17 10:17:37;;;;;;;13.23;1.20;;;8.00;99.90;;;;;;5068719;28;20450;-44
2022/03/17 10:20:25;;;;;;;21.27;2.88;;;8.10;99.90;;;;;;5068885;28;20677;-47
2022/03/17 10:22:51;;;;;;;14.50;1.77;;;8.60;99.90;;;;;;5035076;28;20052;-46
2022/03/17 10:25:26;;;;;;;9.93;1.17;;;9.80;99.90;;;;;;5069686;28;20089;-45
2022/03/17 10:27:55;;;;;;;8.93;1.08;;;10.60;99.90;;;;;;5072085;28;20049;-44
2022/03/17 10:30:27;;;;;;;15.23;1.27;;;9.60;99.90;;;;;;5072490;28;20040;-40
2022/03/17 10:33:01;;;;;;;15.77;1.52;;;9.50;99.90;;;;;;5072077;28;20040;-44
2022/03/17 10:35:35;;;;;;;12.93;3.13;;;11.20;99.90;;;;;;5072265;28;20051;-44
2022/03/17 10:38:13;;;;;;;16.70;1.25;;;10.10;99.90;;;;;;5071644;28;20043;-46
2022/03/17 10:40:40;;;;;;;7.60;0.82;;;11.00;99.90;;;;;;5072188;28;20398;-51
2022/03/17 10:43:20;;;;;;;11.48;0.98;;;10.80;99.90;;;;;;5072153;28;20044;-45
2022/03/17 10:45:46;;;;;;;14.77;1.45;;;10.90;99.90;;;;;;5072346;28;20072;-45
2022/03/17 10:48:31;;;;;;;7.97;0.90;;;12.20;99.90;;;;;;5071518;28;20045;-45
2022/03/17 10:50:57;;;;;;;17.67;1.30;;;11.50;99.90;;;;;;5071825;28;20086;-45
2022/03/17 10:53:33;;;;;;;7.32;0.73;;;11.90;99.90;;;;;;5071565;28;20049;-45
2022/03/17 10:56:17;;;;;;;7.10;1.10;;;12.00;99.90;;;;;;5072063;28;20791;-47
2022/03/17 10:58:43;;;;;;;8.88;1.35;;;13.00;99.90;;;;;;5072190;28;20542;-52
2022/03/17 11:01:10;;;;;;;7.43;0.75;;;12.10;99.90;;;;;;5071791;28;20131;-47
2022/03/17 11:03:36;;;;;;;9.60;1.10;;;13.20;99.90;;;;;;5053718;28;20036;-44
2022/03/17 11:06:06;;;;;;;6.55;0.90;;;12.40;99.90;;;;;;5053833;28;20079;-47
2022/03/17 11:08:32;;;;;;;11.52;0.68;;;12.10;99.90;;;;;;5071682;28;20037;-46
2022/03/17 11:10:58;;;;;;;7.88;0.80;;;11.80;99.90;;;;;;5072370;28;20044;-46
2022/03/17 11:13:24;;;;;;;8.52;0.47;;;11.90;99.90;;;;;;5071993;28;20692;-53
2022/03/17 11:16:07;;;;;;;6.30;0.50;;;11.80;99.90;;;;;;5075127;28;20489;-45
2022/03/17 11:18:34;;;;;;;;;;;11.10;99.90;;;;;;5075105;28;20044;-45
2022/03/17 11:21:25;;;;;;;9.77;1.02;;;10.90;99.90;;;;;;5075538;28;20285;-44
2022/03/17 11:23:58;;;;;;;7.38;0.50;;;10.80;99.90;;;;;;5074988;28;20106;-44
2022/03/17 11:26:35;;;;;;;13.38;1.13;;;10.90;99.90;;;;;;5075158;28;20116;-45
2022/03/17 11:29:10;;;;;;;5.15;0.85;;;10.90;99.90;;;;;;5072974;28;20039;-43
2022/03/17 11:31:52;;;;;;;13.23;1.45;;;11.00;99.90;;;;;;5070952;28;20702;-44
2022/03/17 11:34:38;;;;;;;10.88;0.80;;;11.10;99.90;;;;;;5071431;28;20167;-52
2022/03/17 11:37:36;;;;;;;9.77;1.27;;;11.30;99.90;;;;;;5071002;28;20045;-55
2022/03/17 11:40:03;;;;;;;10.90;0.88;;;11.50;99.90;;;;;;5036659;28;20083;-54
2022/03/17 11:42:36;;;;;;;5.07;0.75;;;11.40;99.90;;;;;;5071160;28;20041;-48
2022/03/17 11:45:14;;;;;;;7.72;0.82;;;11.20;99.90;;;;;;5070831;28;20705;-49
2022/03/17 11:47:54;;;;;;;10.95;1.55;;;10.90;99.90;;;;;;5070836;28;20045;-53
2022/03/17 11:50:37;;;;;;;13.85;0.95;;;10.80;99.90;;;;;;5070820;28;20036;-53
2022/03/17 11:53:20;;;;;;;8.25;0.90;;;10.80;99.90;;;;;;5070360;28;20148;-52
2022/03/17 11:55:46;;;;;;;7.43;0.70;;;10.80;99.90;;;;;;5071269;28;20044;-50
2022/03/17 11:58:19;;;;;;;9.90;0.80;;;10.60;99.90;;;;;;5070871;28;20046;-50
2022/03/17 12:01:11;;;;;;;10.10;0.60;;;10.60;99.90;;;;;;5071327;28;20044;-51
2022/03/17 12:03:47;;;;;;;13.55;1.20;;;10.70;99.90;;;;;;5070530;28;20491;-52
2022/03/17 12:06:13;;;;;;;10.15;1.35;;;10.90;99.90;;;;;;5070554;28;20364;-50
2022/03/17 12:08:55;;;;;;;5.93;1.00;;;11.20;99.90;;;;;;5070675;28;20051;-48
2022/03/17 12:11:22;;;;;;;5.70;0.68;;;11.50;99.90;;;;;;5070859;28;20050;-51
2022/03/17 12:14:46;;;;;;;10.25;1.05;;;10.90;99.90;;;;;;5070366;28;20056;-48
2022/03/17 12:17:05;;;;;;;13.38;1.05;;;11.00;99.90;;;;;;5067101;28;20692;-53
2022/03/17 12:19:41;;;;;;;8.18;0.73;;;11.50;99.90;;;;;;5070347;28;20047;-53
2022/03/17 12:22:11;;;;;;;8.13;0.60;;;11.00;99.90;;;;;;5070727;28;20041;-54
2022/03/17 12:24:47;;;;;;;8.98;0.98;;;11.00;99.90;;;;;;5070089;28;20051;-53
2022/03/17 12:27:19;;;;;;;8.73;0.90;;;11.00;99.90;;;;;;5069673;28;20045;-52
2022/03/17 12:29:48;;;;;;;18.92;1.90;;;11.20;99.90;;;;;;5070636;28;20043;-49
2022/03/17 12:32:21;;;;;;;11.85;0.73;;;11.20;99.90;;;;;;5069907;28;20045;-49
2022/03/17 12:34:50;;;;;;;6.60;0.82;;;11.20;99.90;;;;;;5070001;28;20502;-49
2022/03/17 12:37:17;;;;;;;9.10;1.05;;;11.30;99.90;;;;;;5069355;28;20127;-48
2022/03/17 12:39:51;;;;;;;7.97;1.48;;;11.40;99.90;;;;;;5070129;28;20040;-47
2022/03/17 12:42:23;;;;;;;6.57;0.75;;;11.60;99.90;;;;;;5069795;28;20037;-48
2022/03/17 12:45:07;;;;;;;11.70;1.20;;;11.80;99.90;;;;;;5071761;28;20129;-48
2022/03/17 12:47:37;;;;;;;9.02;0.60;;;12.00;99.90;;;;;;5052405;28;20060;-52
2022/03/17 12:50:11;;;;;;;11.32;1.15;;;12.00;99.90;;;;;;5065898;28;20040;-50
2022/03/17 12:52:40;;;;;;;7.72;0.93;;;12.00;99.90;;;;;;5066819;28;20060;-50
2022/03/17 12:55:10;;;;;;;9.75;0.88;;;11.40;99.90;;;;;;5069865;28;20048;-50
2022/03/17 12:57:40;;;;;;;8.02;1.00;;;11.70;99.20;;;;;;5070169;28;20071;-51
2022/03/17 13:00:12;;;;;;;5.55;1.13;;;11.60;99.90;;;;;;5070265;28;20040;-47
2022/03/17 13:02:45;;;;;;;14.45;2.33;;;11.60;99.10;;;;;;5069966;28;20522;-51
2022/03/17 13:07:59;;;;;;;13.43;2.05;;;11.70;99.10;;;;;;5069928;28;20063;-51
2022/03/17 13:10:26;;;;;;;10.40;1.00;;;11.70;98.40;;;;;;5069473;28;20467;-50
2022/03/17 13:15:37;;;;;;;7.28;0.75;;;11.60;98.40;;;;;;5069340;28;20127;-50
2022/03/17 13:18:04;;;;;;;10.55;1.00;;;11.70;98.80;;;;;;5069797;28;20090;-53
2022/03/17 13:20:31;;;;;;;10.10;1.13;;;11.90;99.90;;;;;;5069410;28;20043;-54